createdAt,value
2018-07-13T00:02:13.932Z,52.99
2018-07-13T00:07:17.720Z,52.51
2018-07-13T00:12:21.485Z,52.85
2018-07-13T00:17:25.158Z,53.27
2018-07-13T00:22:29.458Z,53.31
2018-07-13T00:27:33.103Z,53.45
2018-07-13T00:32:36.818Z,53.93
2018-07-13T00:37:40.482Z,53.62
2018-07-13T00:42:44.192Z,53.77
2018-07-13T00:47:48.312Z,54.13
2018-07-13T00:52:51.971Z,53.92
2018-07-13T00:57:55.666Z,54.00
2018-07-13T01:02:59.794Z,54.35
2018-07-13T01:08:03.721Z,54.58
2018-07-13T01:13:09.068Z,54.53
2018-07-13T01:18:13.804Z,54.37
2018-07-13T01:23:17.881Z,54.59
2018-07-13T01:28:22.154Z,54.39
2018-07-13T01:33:26.135Z,54.23
2018-07-13T01:38:31.643Z,54.00
2018-07-13T01:43:35.794Z,53.99
2018-07-13T01:48:39.719Z,53.83
2018-07-13T01:53:44.358Z,54.09
2018-07-13T01:58:48.555Z,53.74
2018-07-13T02:03:52.862Z,54.13
2018-07-13T02:08:57.028Z,53.91
2018-07-13T02:14:00.842Z,53.88
2018-07-13T02:19:05.156Z,53.89
2018-07-13T02:24:09.067Z,53.77
2018-07-13T02:29:13.595Z,54.14
2018-07-13T02:34:17.618Z,54.06
2018-07-13T02:39:21.491Z,53.83
2018-07-13T02:44:25.533Z,54.01
2018-07-13T02:49:29.459Z,53.70
2018-07-13T02:54:35.637Z,53.66
2018-07-13T02:59:42.643Z,53.56
2018-07-13T03:04:48.929Z,53.72
2018-07-13T03:09:53.190Z,54.03
2018-07-13T03:14:58.323Z,54.04
2018-07-13T03:20:07.130Z,54.06
2018-07-13T03:25:11.156Z,53.61
2018-07-13T03:30:15.455Z,53.77
2018-07-13T03:35:21.071Z,54.08
2018-07-13T03:40:26.179Z,53.87
2018-07-13T03:45:30.111Z,54.10
2018-07-13T03:50:34.185Z,53.71
2018-07-13T03:55:38.054Z,53.62
2018-07-13T04:00:41.903Z,53.09
2018-07-13T04:05:45.801Z,53.29
2018-07-13T04:10:50.584Z,54.75
2018-07-13T04:15:56.813Z,56.74
2018-07-13T04:21:02.216Z,56.90
2018-07-13T04:26:12.689Z,57.81
2018-07-13T04:31:17.242Z,58.24
2018-07-13T04:36:22.338Z,59.54
2018-07-13T04:41:27.572Z,60.40
2018-07-13T04:46:33.714Z,60.52
2018-07-13T04:51:39.378Z,61.26
2018-07-13T04:56:45.028Z,61.64
2018-07-13T05:01:56.292Z,61.83
2018-07-13T05:07:06.759Z,62.42
2018-07-13T05:12:14.447Z,62.20
2018-07-13T05:17:20.332Z,62.48
2018-07-13T05:22:25.642Z,61.95
2018-07-13T05:27:33.408Z,62.43
2018-07-13T05:32:40.138Z,61.92
2018-07-13T05:37:45.495Z,60.76
2018-07-13T05:42:51.773Z,59.61
2018-07-13T05:47:57.134Z,59.43
2018-07-13T05:53:01.905Z,59.49
2018-07-13T05:58:08.832Z,58.33
2018-07-13T06:03:12.967Z,57.58
2018-07-13T06:08:22.812Z,57.61
2018-07-13T06:13:27.705Z,56.58
2018-07-13T06:18:34.541Z,55.27
2018-07-13T06:23:40.655Z,56.60
2018-07-13T06:28:45.904Z,55.95
2018-07-13T06:33:51.021Z,55.24
2018-07-13T06:38:55.441Z,55.52
2018-07-13T06:44:00.154Z,54.79
2018-07-13T06:49:05.689Z,54.77
2018-07-13T06:54:11.909Z,55.05
2018-07-13T06:59:18.732Z,54.47
2018-07-13T07:04:32.948Z,54.84
2018-07-13T07:09:41.163Z,54.43
2018-07-13T07:14:48.417Z,53.59
2018-07-13T07:19:52.662Z,53.91
2018-07-13T07:24:56.367Z,54.71
2018-07-13T07:30:05.434Z,54.29
2018-07-13T07:35:09.787Z,54.29
2018-07-13T07:40:13.489Z,55.05
2018-07-13T07:45:17.146Z,54.54
2018-07-13T07:55:29.667Z,54.99
2018-07-13T08:00:33.386Z,54.93
2018-07-13T08:05:38.193Z,54.33
2018-07-13T08:10:41.843Z,52.69
2018-07-13T08:15:45.554Z,52.57
2018-07-13T08:20:49.883Z,52.13
2018-07-13T08:25:53.767Z,51.33
2018-07-13T08:30:59.543Z,50.79
2018-07-13T08:36:03.248Z,50.57
2018-07-13T08:41:06.984Z,49.86
2018-07-13T08:46:11.795Z,49.64
2018-07-13T08:51:16.447Z,50.12
2018-07-13T08:56:20.161Z,50.00
2018-07-13T09:01:23.750Z,49.36
2018-07-13T09:06:27.473Z,49.53
2018-07-13T09:11:31.282Z,49.94
2018-07-13T09:16:34.955Z,50.98
2018-07-13T09:23:34.387Z,49.81
2018-07-13T09:28:38.100Z,68.12
2018-07-13T09:33:41.773Z,62.03
2018-07-13T09:38:45.636Z,56.67
2018-07-13T09:43:49.398Z,53.00
2018-07-13T09:48:54.538Z,50.97
2018-07-13T09:53:59.675Z,48.54
2018-07-13T09:59:09.073Z,49.09
2018-07-13T10:04:14.095Z,48.30
2018-07-13T10:09:18.637Z,47.69
2018-07-13T10:14:23.523Z,47.49
2018-07-13T10:19:28.200Z,48.12
2018-07-13T11:44:05.219Z,44.42
2018-07-13T11:49:09.023Z,44.93
2018-07-13T11:54:12.974Z,45.56
2018-07-13T11:59:16.833Z,45.55
2018-07-13T12:04:39.334Z,45.04
2018-07-13T12:09:43.247Z,44.41
2018-07-13T12:22:27.272Z,46.86
2018-07-13T12:27:30.907Z,47.02
2018-07-13T12:32:34.633Z,46.67
2018-07-13T12:37:38.359Z,47.07
2018-07-13T12:42:42.053Z,47.09
2018-07-13T12:47:46.954Z,47.49
2018-07-13T12:52:50.729Z,47.80
2018-07-13T12:57:54.465Z,47.89
2018-07-13T13:02:58.167Z,48.07
2018-07-13T13:08:05.065Z,48.31
2018-07-13T13:18:46.616Z,48.11
2018-07-13T13:35:52.053Z,48.57
2018-07-13T13:40:58.143Z,48.27
2018-07-13T13:46:03.064Z,48.77
2018-07-13T13:51:07.471Z,48.53
2018-07-13T13:56:13.200Z,48.89
2018-07-13T14:01:17.962Z,49.06
2018-07-13T14:06:21.983Z,48.94
2018-07-13T14:11:25.894Z,49.05
2018-07-13T14:16:30.550Z,48.98
2018-07-13T14:21:35.408Z,49.53
2018-07-13T14:26:39.213Z,49.04
2018-07-13T14:31:43.639Z,49.30
2018-07-13T14:36:47.413Z,49.14
2018-07-13T14:41:51.190Z,49.03
2018-07-13T14:46:54.990Z,49.26
2018-07-13T14:51:58.780Z,49.36
2018-07-13T14:57:02.637Z,48.85
2018-07-13T15:02:07.467Z,49.02
2018-07-13T15:07:12.302Z,48.92
2018-07-13T15:12:16.064Z,49.00
2018-07-13T15:17:20.488Z,48.85
2018-07-13T15:22:24.380Z,49.13
2018-07-13T15:27:28.893Z,48.97
2018-07-13T15:43:27.741Z,49.18
2018-07-13T15:48:31.945Z,49.14
2018-07-13T15:53:36.374Z,49.17
2018-07-13T16:03:49.759Z,48.87
2018-07-13T16:08:53.529Z,49.11
2018-07-13T16:13:57.291Z,49.08
2018-07-13T16:19:01.046Z,49.34
2018-07-13T16:24:05.056Z,50.20
2018-07-13T16:29:10.476Z,49.98
2018-07-13T16:34:16.163Z,49.94
2018-07-13T16:39:19.951Z,48.67
2018-07-13T16:44:24.220Z,47.67
2018-07-13T16:49:28.128Z,45.87
2018-07-13T16:54:32.547Z,45.69
2018-07-13T16:59:36.474Z,46.51
2018-07-13T17:04:40.295Z,47.03
2018-07-13T17:09:43.997Z,47.52
2018-07-13T17:14:47.869Z,47.36
2018-07-13T17:19:52.075Z,47.69
2018-07-13T17:24:56.577Z,47.36
2018-07-13T17:30:05.083Z,47.78
2018-07-13T17:35:09.017Z,48.26
2018-07-13T17:40:14.069Z,48.39
2018-07-13T17:45:17.923Z,48.13
2018-07-13T17:50:21.835Z,48.25
2018-07-13T17:55:26.958Z,48.05
2018-07-13T18:00:31.237Z,47.89
2018-07-13T18:05:36.404Z,48.17
2018-07-13T18:10:41.249Z,48.25
2018-07-13T18:15:45.741Z,48.09
2018-07-13T18:20:51.554Z,48.12
2018-07-13T18:25:56.280Z,47.91
2018-07-13T18:31:01.362Z,47.91
2018-07-13T18:36:05.436Z,47.78
2018-07-13T18:41:09.641Z,47.91
2018-07-13T18:46:15.535Z,47.69
2018-07-13T18:51:20.652Z,47.68
2018-07-13T18:56:25.813Z,48.15
2018-07-13T19:01:29.806Z,47.96
2018-07-13T19:06:34.581Z,47.72
2018-07-13T19:11:38.595Z,47.78
2018-07-13T19:16:42.659Z,47.48
2018-07-13T19:21:54.740Z,47.52
2018-07-13T19:26:59.501Z,47.65
2018-07-13T19:32:03.632Z,47.59
2018-07-13T19:37:11.691Z,47.58
2018-07-13T19:42:18.045Z,47.68
2018-07-13T19:47:22.745Z,47.77
2018-07-13T19:52:26.705Z,47.63
2018-07-13T19:57:30.794Z,47.49
2018-07-13T20:02:35.191Z,47.26
2018-07-13T20:07:40.953Z,47.15
2018-07-13T20:12:45.443Z,47.58
2018-07-13T20:17:50.678Z,47.65
2018-07-13T20:22:55.042Z,47.55
2018-07-13T20:27:59.403Z,47.71
2018-07-13T20:33:04.007Z,47.51
2018-07-13T20:38:08.364Z,47.43
2018-07-13T20:43:14.134Z,47.20
2018-07-13T20:48:18.188Z,47.35
2018-07-13T20:53:23.599Z,47.51
2018-07-13T20:58:29.404Z,47.37
2018-07-13T21:03:34.024Z,47.38
2018-07-13T21:08:39.281Z,47.31
2018-07-13T21:13:43.857Z,47.47
2018-07-13T21:18:47.918Z,47.52
2018-07-13T21:23:54.003Z,47.32
2018-07-13T21:29:00.015Z,47.56
2018-07-13T21:34:03.864Z,47.28
2018-07-13T21:39:08.240Z,47.50
2018-07-13T21:44:12.064Z,47.39
2018-07-13T21:49:16.027Z,47.37
2018-07-13T21:54:19.906Z,47.29
2018-07-13T21:59:24.214Z,47.56
2018-07-13T22:04:32.078Z,47.24
2018-07-13T22:09:36.559Z,47.48
2018-07-13T22:14:41.607Z,47.46
2018-07-13T22:19:46.029Z,47.51
2018-07-13T22:24:50.296Z,47.61
2018-07-13T22:29:54.574Z,47.45
2018-07-13T22:34:59.818Z,47.69
2018-07-13T22:40:09.239Z,47.71
2018-07-13T22:45:13.653Z,47.29
2018-07-13T22:50:18.130Z,47.29
2018-07-13T22:55:22.920Z,47.28
2018-07-13T23:00:26.864Z,47.73
2018-07-13T23:05:30.846Z,47.15
2018-07-13T23:10:34.872Z,47.21
2018-07-13T23:15:39.863Z,46.98
2018-07-13T23:20:46.456Z,46.95
2018-07-13T23:25:56.978Z,46.90
2018-07-13T23:31:00.937Z,47.28
2018-07-13T23:36:07.501Z,46.90
2018-07-13T23:41:11.830Z,46.83
2018-07-13T23:46:15.742Z,46.85
2018-07-13T23:51:21.602Z,46.40
2018-07-13T23:56:34.510Z,47.08
